Time;durP1;ratioP1;P1;durP2;ratioP2;P2;SDS_P1;SDS_P2;PMS_P1;PMS_P2;Temp;Humidity;BMP_temperature;BMP_pressure;BME280_temperature;BME280_humidity;BME280_pressure;Samples;Min_cycle;Max_cycle;Signal;HPM_P1;HPM_P2
2022/10/31 00:01:29;;;;;;;25.77;13.23;;;12.60;99.90;;;;;;5103122;28;20190;-63
2022/10/31 00:03:59;;;;;;;20.83;12.90;;;12.70;99.90;;;;;;5083480;28;20249;-64
2022/10/31 00:06:28;;;;;;;23.83;13.63;;;12.60;99.90;;;;;;5091721;28;20237;-64
2022/10/31 00:08:58;;;;;;;24.30;13.17;;;12.60;99.90;;;;;;5081574;28;20191;-64
2022/10/31 00:11:29;;;;;;;20.20;13.40;;;12.50;99.90;;;;;;5096999;28;20193;-63
2022/10/31 00:13:58;;;;;;;24.03;13.50;;;12.50;99.90;;;;;;5111015;28;20206;-64
2022/10/31 00:16:29;;;;;;;23.77;12.30;;;12.40;99.90;;;;;;5095563;28;20229;-64
2022/10/31 00:18:59;;;;;;;20.23;12.10;;;12.30;99.90;;;;;;5112542;28;20199;-63
2022/10/31 00:21:28;;;;;;;22.00;13.30;;;12.20;99.90;;;;;;5112995;28;20191;-64
2022/10/31 00:23:58;;;;;;;26.57;13.03;;;12.20;99.90;;;;;;5107694;28;20199;-63
2022/10/31 00:26:28;;;;;;;21.73;12.40;;;12.10;99.90;;;;;;5095133;28;20195;-63
2022/10/31 00:28:56;;;;;;;21.93;12.07;;;12.00;99.90;;;;;;5091293;28;20197;-64
2022/10/31 00:31:24;;;;;;;23.87;13.20;;;11.90;99.90;;;;;;5109182;28;20199;-63
2022/10/31 00:33:53;;;;;;;22.27;13.47;;;11.90;99.90;;;;;;5104403;27;20196;-63
2022/10/31 00:36:21;;;;;;;23.03;13.03;;;11.80;99.90;;;;;;5107809;28;20191;-63
2022/10/31 00:38:49;;;;;;;24.20;13.07;;;11.90;99.90;;;;;;5104943;28;20213;-63
2022/10/31 00:41:18;;;;;;;23.13;13.10;;;11.80;99.90;;;;;;5111259;27;20208;-63
2022/10/31 00:43:48;;;;;;;28.87;13.80;;;11.70;99.90;;;;;;5088161;28;20629;-63
2022/10/31 00:46:17;;;;;;;20.43;12.87;;;11.70;99.90;;;;;;5108450;28;20205;-63
2022/10/31 00:48:45;;;;;;;23.47;13.50;;;11.60;99.90;;;;;;5111887;27;20210;-63
2022/10/31 00:51:14;;;;;;;24.00;13.13;;;11.60;99.90;;;;;;5113278;28;20213;-63
2022/10/31 00:53:42;;;;;;;18.97;12.50;;;11.50;99.90;;;;;;5096139;28;20194;-63
2022/10/31 00:56:10;;;;;;;24.23;14.47;;;11.50;99.90;;;;;;5104269;28;20638;-63
2022/10/31 00:58:39;;;;;;;22.23;14.03;;;11.50;99.90;;;;;;5111324;28;20195;-63
2022/10/31 01:01:08;;;;;;;30.47;15.77;;;11.50;99.90;;;;;;5092646;28;20641;-63
2022/10/31 01:03:38;;;;;;;28.77;16.10;;;11.60;99.90;;;;;;5098221;28;20195;-63
2022/10/31 01:06:09;;;;;;;25.53;14.83;;;11.70;99.90;;;;;;5107976;28;20285;-63
2022/10/31 01:08:38;;;;;;;22.23;13.20;;;11.70;99.90;;;;;;5109530;28;20234;-63
2022/10/31 01:11:09;;;;;;;24.47;14.53;;;11.60;99.90;;;;;;5091216;28;20253;-63
2022/10/31 01:13:37;;;;;;;25.20;13.40;;;11.50;99.90;;;;;;5109822;28;20222;-63
2022/10/31 01:16:10;;;;;;;25.47;14.10;;;11.40;99.90;;;;;;5091709;28;20186;-63
2022/10/31 01:18:39;;;;;;;25.73;14.20;;;11.40;99.90;;;;;;5107788;28;20191;-63
2022/10/31 01:21:10;;;;;;;21.10;13.27;;;11.30;99.90;;;;;;5100509;28;20557;-63
2022/10/31 01:23:38;;;;;;;21.57;13.67;;;11.30;99.90;;;;;;5069202;28;20661;-63
2022/10/31 01:26:10;;;;;;;22.23;12.27;;;11.30;99.90;;;;;;5107292;28;20244;-63
2022/10/31 01:28:40;;;;;;;21.90;13.63;;;11.20;99.90;;;;;;5098355;28;20223;-63
2022/10/31 01:31:10;;;;;;;29.33;13.87;;;11.20;99.90;;;;;;5108882;28;20227;-63
2022/10/31 01:33:39;;;;;;;18.30;11.60;;;11.10;99.90;;;;;;5106939;28;20195;-63
2022/10/31 01:36:17;;;;;;;21.83;11.97;;;11.10;99.90;;;;;;5117132;27;20649;-63
2022/10/31 01:38:46;;;;;;;17.07;11.80;;;11.00;99.90;;;;;;5096002;28;20210;-63
2022/10/31 01:41:16;;;;;;;23.83;12.60;;;10.90;99.90;;;;;;5086446;28;20191;-63
2022/10/31 01:43:46;;;;;;;19.77;12.53;;;10.80;99.90;;;;;;5087073;28;20195;-63
2022/10/31 01:46:20;;;;;;;18.17;11.90;;;10.80;99.90;;;;;;5093542;28;20186;-63
2022/10/31 01:48:49;;;;;;;23.10;13.40;;;10.80;99.90;;;;;;5106501;28;20215;-63
2022/10/31 01:51:21;;;;;;;17.63;11.10;;;10.70;99.90;;;;;;5105786;28;20180;-63
2022/10/31 01:53:52;;;;;;;18.37;10.90;;;10.70;99.90;;;;;;5101310;28;20657;-63
2022/10/31 01:56:21;;;;;;;23.73;11.87;;;10.60;99.90;;;;;;5112512;28;20244;-63
2022/10/31 01:58:49;;;;;;;20.17;12.00;;;10.50;99.90;;;;;;5112712;28;20190;-63
2022/10/31 02:01:19;;;;;;;21.90;12.97;;;10.50;99.90;;;;;;5109301;28;20365;-63
2022/10/31 02:03:49;;;;;;;28.37;13.03;;;10.50;99.90;;;;;;5088564;28;20202;-63
2022/10/31 02:06:27;;;;;;;25.80;13.37;;;10.50;99.90;;;;;;5100931;28;20209;-63
2022/10/31 02:08:58;;;;;;;25.17;13.17;;;10.50;99.90;;;;;;5101956;28;20649;-63
2022/10/31 02:11:26;;;;;;;23.73;14.63;;;10.50;99.90;;;;;;5108459;28;20190;-63
2022/10/31 02:13:55;;;;;;;26.20;14.53;;;10.60;99.90;;;;;;5089415;28;20195;-63
2022/10/31 02:16:25;;;;;;;29.67;14.93;;;10.60;99.90;;;;;;5070372;28;20205;-63
2022/10/31 02:18:54;;;;;;;29.10;14.70;;;10.60;99.90;;;;;;5086680;28;20214;-63
2022/10/31 02:21:31;;;;;;;25.60;14.33;;;10.60;99.90;;;;;;5072739;28;20183;-63
2022/10/31 02:24:37;;;;;;;25.47;14.50;;;10.60;99.90;;;;;;5109298;28;20194;-63
2022/10/31 02:27:17;;;;;;;22.97;13.40;;;10.60;99.90;;;;;;5104137;28;20205;-63
2022/10/31 02:30:14;;;;;;;20.00;13.17;;;10.60;99.90;;;;;;5089109;28;20224;-63
2022/10/31 02:32:56;;;;;;;21.10;12.37;;;10.50;99.90;;;;;;5106044;28;20571;-63
2022/10/31 02:35:40;;;;;;;20.70;11.97;;;10.50;99.90;;;;;;5107785;28;20202;-63
2022/10/31 02:38:20;;;;;;;16.73;11.50;;;10.50;99.90;;;;;;5105646;28;20210;-63
2022/10/31 02:40:57;;;;;;;20.47;11.40;;;10.40;99.90;;;;;;5106954;28;20194;-63
2022/10/31 02:43:33;;;;;;;21.97;11.37;;;10.40;99.90;;;;;;5103236;28;20217;-63
2022/10/31 02:46:09;;;;;;;21.30;12.50;;;10.40;99.90;;;;;;5098216;28;20338;-63
2022/10/31 02:48:41;;;;;;;22.77;13.20;;;10.30;99.90;;;;;;5095219;28;20216;-63
2022/10/31 02:51:11;;;;;;;24.83;13.23;;;10.30;99.90;;;;;;5106639;28;20210;-63
2022/10/31 02:53:39;;;;;;;26.47;13.40;;;10.20;99.90;;;;;;5099435;28;20183;-63
2022/10/31 02:56:12;;;;;;;24.40;13.23;;;10.20;99.90;;;;;;5101561;28;20191;-63
2022/10/31 02:58:46;;;;;;;28.37;14.07;;;10.30;99.90;;;;;;5104507;28;20191;-63
2022/10/31 03:01:45;;;;;;;24.50;13.93;;;10.30;99.90;;;;;;5102404;28;20201;-63
2022/10/31 03:04:27;;;;;;;25.00;13.73;;;10.30;99.90;;;;;;5101838;28;20190;-63
2022/10/31 03:07:02;;;;;;;26.70;13.20;;;10.30;99.90;;;;;;5104611;28;20190;-63
2022/10/31 03:09:35;;;;;;;23.47;13.30;;;10.30;99.90;;;;;;5090163;28;20303;-63
2022/10/31 03:12:10;;;;;;;22.57;12.03;;;10.30;99.90;;;;;;5099032;28;20236;-63
2022/10/31 03:14:43;;;;;;;17.83;10.83;;;10.20;99.90;;;;;;5082485;28;21027;-63
2022/10/31 03:17:18;;;;;;;13.77;10.30;;;10.10;99.90;;;;;;5105949;28;20668;-63
2022/10/31 03:19:53;;;;;;;22.47;11.40;;;10.00;99.90;;;;;;5087840;28;20189;-63
2022/10/31 03:22:24;;;;;;;17.80;10.67;;;9.90;99.90;;;;;;5108575;28;20190;-63
2022/10/31 03:24:55;;;;;;;12.57;9.33;;;9.90;99.90;;;;;;5100097;28;20194;-63
2022/10/31 03:27:27;;;;;;;14.87;9.73;;;9.80;99.90;;;;;;5105659;28;20202;-63
2022/10/31 03:29:58;;;;;;;18.20;9.77;;;9.80;99.90;;;;;;5103821;28;20206;-63
2022/10/31 03:32:31;;;;;;;14.20;9.67;;;9.70;99.90;;;;;;5099921;28;20207;-64
2022/10/31 03:35:03;;;;;;;12.70;9.00;;;9.60;99.90;;;;;;5097653;28;20542;-62
2022/10/31 03:37:35;;;;;;;10.87;8.60;;;9.60;99.90;;;;;;5103260;28;20213;-63
2022/10/31 03:40:08;;;;;;;16.40;10.27;;;9.60;99.90;;;;;;5099469;28;20192;-63
2022/10/31 03:42:40;;;;;;;16.37;10.40;;;9.60;99.90;;;;;;5081862;28;20218;-63
2022/10/31 03:45:13;;;;;;;13.17;9.57;;;9.50;99.90;;;;;;5109169;28;20199;-62
2022/10/31 03:47:43;;;;;;;13.90;9.53;;;9.50;99.90;;;;;;5109392;28;20201;-63
2022/10/31 03:50:15;;;;;;;17.27;9.07;;;9.50;99.90;;;;;;5090449;28;20236;-64
2022/10/31 03:52:48;;;;;;;11.10;8.40;;;9.40;99.90;;;;;;5098386;28;20624;-63
2022/10/31 03:55:20;;;;;;;10.33;8.10;;;9.40;99.90;;;;;;5110922;28;20596;-64
2022/10/31 03:57:56;;;;;;;16.97;8.90;;;9.40;99.90;;;;;;5106714;28;20191;-64
2022/10/31 04:00:26;;;;;;;14.87;9.83;;;9.40;99.90;;;;;;5105343;28;20623;-63
2022/10/31 04:02:59;;;;;;;15.00;9.83;;;9.30;99.90;;;;;;5102042;28;20201;-63
2022/10/31 04:05:31;;;;;;;16.93;8.93;;;9.30;99.90;;;;;;5104229;28;20198;-63
2022/10/31 04:08:03;;;;;;;28.33;7.00;;;9.30;99.90;;;;;;5101717;28;20195;-63
2022/10/31 04:10:32;;;;;;;8.50;7.10;;;9.30;99.90;;;;;;5105667;28;20666;-63
2022/10/31 04:13:07;;;;;;;12.17;8.03;;;9.30;99.90;;;;;;5108044;28;20226;-64
2022/10/31 04:15:37;;;;;;;17.63;9.93;;;9.30;99.90;;;;;;5111336;28;20664;-63
2022/10/31 04:18:06;;;;;;;18.97;11.07;;;9.30;99.90;;;;;;5108228;28;20202;-63
2022/10/31 04:20:39;;;;;;;20.47;11.23;;;9.30;99.90;;;;;;5101646;28;20184;-63
2022/10/31 04:23:17;;;;;;;15.47;9.73;;;9.30;99.90;;;;;;5110895;28;20205;-63
2022/10/31 04:25:45;;;;;;;14.07;9.67;;;9.20;99.90;;;;;;5111234;28;20194;-63
2022/10/31 04:28:14;;;;;;;16.97;9.10;;;9.20;99.90;;;;;;5107575;28;20222;-63
2022/10/31 04:30:42;;;;;;;13.27;9.63;;;9.10;99.90;;;;;;5110533;28;20289;-63
2022/10/31 04:33:10;;;;;;;18.73;9.47;;;9.10;99.90;;;;;;5107535;28;20199;-63
2022/10/31 04:35:40;;;;;;;17.53;9.47;;;9.10;99.90;;;;;;5094400;28;20533;-63
2022/10/31 04:38:09;;;;;;;19.07;10.37;;;9.10;99.90;;;;;;5104924;28;20190;-63
2022/10/31 04:40:37;;;;;;;13.70;9.13;;;9.10;99.90;;;;;;5109298;28;20700;-63
2022/10/31 04:43:06;;;;;;;13.27;9.20;;;9.10;99.90;;;;;;5081565;28;20730;-63
2022/10/31 04:45:34;;;;;;;17.30;10.57;;;9.10;99.90;;;;;;5107681;28;20294;-63
2022/10/31 04:48:02;;;;;;;16.63;10.03;;;9.10;99.90;;;;;;5085502;28;20199;-63
2022/10/31 04:50:31;;;;;;;20.40;11.03;;;9.10;99.90;;;;;;5106575;28;20221;-63
2022/10/31 04:53:00;;;;;;;17.03;10.50;;;9.10;99.90;;;;;;5110094;28;20190;-64
2022/10/31 04:55:29;;;;;;;17.40;10.30;;;9.10;99.90;;;;;;5103829;28;20194;-63
2022/10/31 04:57:57;;;;;;;16.67;11.07;;;9.00;99.90;;;;;;5106664;28;20207;-63
2022/10/31 05:00:26;;;;;;;21.43;11.13;;;9.00;99.90;;;;;;5105951;28;20198;-63
2022/10/31 05:03:10;;;;;;;29.10;12.67;;;9.10;99.90;;;;;;5112504;28;20899;-63
2022/10/31 05:05:38;;;;;;;20.90;12.50;;;9.20;99.90;;;;;;5087491;28;20188;-63
2022/10/31 05:08:10;;;;;;;21.87;13.13;;;9.30;99.90;;;;;;5096046;28;20529;-63
2022/10/31 05:10:39;;;;;;;25.17;13.37;;;9.30;99.90;;;;;;5087431;28;20214;-63
2022/10/31 05:13:07;;;;;;;24.53;14.20;;;9.40;99.90;;;;;;5082412;28;20236;-63
2022/10/31 05:15:37;;;;;;;24.77;13.23;;;9.40;99.90;;;;;;5107970;28;20203;-63
2022/10/31 05:18:06;;;;;;;24.37;13.90;;;9.40;99.90;;;;;;5092560;28;20209;-63
2022/10/31 05:20:34;;;;;;;24.43;14.47;;;9.50;99.90;;;;;;5106759;28;20194;-63
2022/10/31 05:23:02;;;;;;;26.40;14.10;;;9.50;99.90;;;;;;5089444;28;20187;-63
2022/10/31 05:25:32;;;;;;;32.40;16.03;;;9.70;99.90;;;;;;5103586;28;20191;-63
2022/10/31 05:28:00;;;;;;;30.60;15.50;;;9.80;99.90;;;;;;5099217;28;20689;-63
2022/10/31 05:30:30;;;;;;;33.87;16.53;;;9.90;99.90;;;;;;5105150;27;20214;-63
2022/10/31 05:32:59;;;;;;;29.57;15.20;;;9.90;99.90;;;;;;5104826;27;20186;-63
2022/10/31 05:35:29;;;;;;;30.00;17.53;;;9.90;99.90;;;;;;5106875;28;20207;-63
2022/10/31 05:37:58;;;;;;;31.33;17.17;;;10.00;99.90;;;;;;5092578;28;20199;-63
2022/10/31 05:40:28;;;;;;;36.83;17.50;;;10.10;99.90;;;;;;5105216;28;20201;-64
2022/10/31 05:42:59;;;;;;;34.70;17.07;;;10.20;99.90;;;;;;5103964;28;20213;-63
2022/10/31 05:45:28;;;;;;;33.47;15.93;;;10.30;99.90;;;;;;5103966;28;20672;-63
2022/10/31 05:47:57;;;;;;;30.33;15.83;;;10.30;99.90;;;;;;5104856;28;20195;-63
2022/10/31 05:50:28;;;;;;;33.13;17.50;;;10.30;99.90;;;;;;5102090;28;20301;-63
2022/10/31 05:52:57;;;;;;;30.03;16.63;;;10.30;99.90;;;;;;5105572;28;20198;-64
2022/10/31 05:55:25;;;;;;;34.87;16.83;;;10.40;99.90;;;;;;5103262;28;20191;-63
2022/10/31 05:57:54;;;;;;;32.67;17.23;;;10.30;99.90;;;;;;5096439;28;20221;-63
2022/10/31 06:00:24;;;;;;;32.07;16.83;;;10.30;99.90;;;;;;5086369;28;20183;-63
2022/10/31 06:02:59;;;;;;;26.80;15.63;;;10.40;99.90;;;;;;5098517;28;20201;-63
2022/10/31 06:05:30;;;;;;;36.10;17.67;;;10.40;99.90;;;;;;5087509;28;20218;-63
2022/10/31 06:07:59;;;;;;;27.10;15.97;;;10.40;99.90;;;;;;5077383;28;20203;-63
2022/10/31 06:10:28;;;;;;;28.10;16.33;;;10.50;99.90;;;;;;5097218;28;20210;-63
2022/10/31 06:12:57;;;;;;;29.33;15.57;;;10.50;99.90;;;;;;5104021;28;20223;-63
2022/10/31 06:15:26;;;;;;;29.23;15.17;;;10.50;99.90;;;;;;5101906;27;20691;-63
2022/10/31 06:18:04;;;;;;;30.53;16.70;;;10.40;99.90;;;;;;5089073;28;20661;-63
2022/10/31 06:20:32;;;;;;;34.13;16.73;;;10.40;99.90;;;;;;5106890;28;20603;-63
2022/10/31 06:23:00;;;;;;;27.63;15.57;;;10.40;99.90;;;;;;5097731;28;20198;-63
2022/10/31 06:25:30;;;;;;;24.67;15.27;;;10.50;99.90;;;;;;5101369;27;20195;-63
2022/10/31 06:27:58;;;;;;;29.40;15.73;;;10.50;99.90;;;;;;5100121;28;20195;-63
2022/10/31 06:30:27;;;;;;;31.37;16.67;;;10.50;99.90;;;;;;5096245;27;20207;-63
2022/10/31 06:33:01;;;;;;;26.57;15.73;;;10.50;99.90;;;;;;5100938;28;20195;-63
2022/10/31 06:35:30;;;;;;;23.43;15.40;;;10.50;99.90;;;;;;5101683;28;20213;-63
2022/10/31 06:37:59;;;;;;;27.00;15.90;;;10.40;99.90;;;;;;5088672;28;20191;-63
2022/10/31 06:40:27;;;;;;;26.10;15.90;;;10.40;99.90;;;;;;5104067;27;20675;-63
2022/10/31 06:43:00;;;;;;;26.43;14.83;;;10.40;99.90;;;;;;5103194;28;20222;-63
2022/10/31 06:45:29;;;;;;;28.77;15.37;;;10.40;99.90;;;;;;5103963;28;20191;-63
2022/10/31 06:47:58;;;;;;;27.47;15.50;;;10.40;99.90;;;;;;5098758;28;20290;-64
2022/10/31 06:50:47;;;;;;;28.03;15.77;;;10.40;99.90;;;;;;5101519;28;20669;-63
2022/10/31 06:53:15;;;;;;;29.00;16.17;;;10.40;99.90;;;;;;5070486;28;20563;-63
2022/10/31 06:55:44;;;;;;;27.30;16.60;;;10.40;99.90;;;;;;5104296;27;20194;-63
2022/10/31 06:58:12;;;;;;;31.23;16.63;;;10.50;99.90;;;;;;5090438;27;20190;-63
2022/10/31 07:00:42;;;;;;;29.97;16.10;;;10.50;99.90;;;;;;5103870;28;20194;-63
2022/10/31 07:03:12;;;;;;;30.70;17.00;;;10.50;99.90;;;;;;5095079;28;20190;-63
2022/10/31 07:05:41;;;;;;;25.13;15.80;;;10.50;99.90;;;;;;5111721;27;20190;-63
2022/10/31 07:08:12;;;;;;;31.67;17.27;;;10.60;99.90;;;;;;5090564;28;20199;-63
2022/10/31 07:10:42;;;;;;;29.23;16.80;;;10.60;99.90;;;;;;5091141;28;21227;-63
2022/10/31 07:13:13;;;;;;;31.23;16.40;;;10.60;99.90;;;;;;5090487;28;20219;-63
2022/10/31 07:15:44;;;;;;;33.17;17.30;;;10.60;99.90;;;;;;5104351;28;20696;-63
2022/10/31 07:18:13;;;;;;;31.87;17.73;;;10.60;99.90;;;;;;5110148;28;20207;-63
2022/10/31 07:20:41;;;;;;;30.07;17.47;;;10.70;99.90;;;;;;5105594;28;20206;-63
2022/10/31 07:23:11;;;;;;;28.10;16.80;;;10.80;99.90;;;;;;5101195;28;20197;-63
2022/10/31 07:25:40;;;;;;;27.47;16.67;;;10.80;99.90;;;;;;5110879;28;20224;-63
2022/10/31 07:28:09;;;;;;;32.63;17.20;;;10.80;99.90;;;;;;5118925;28;20194;-63
2022/10/31 07:30:38;;;;;;;30.47;16.37;;;10.90;99.90;;;;;;5109833;28;20910;-64
2022/10/31 07:33:07;;;;;;;33.47;16.87;;;10.90;99.90;;;;;;5104115;28;20191;-63
2022/10/31 07:35:36;;;;;;;37.63;17.93;;;10.90;99.90;;;;;;5110262;28;20195;-63
2022/10/31 07:38:11;;;;;;;33.70;17.30;;;11.00;99.90;;;;;;5114854;28;20202;-63
2022/10/31 07:40:40;;;;;;;29.43;16.83;;;11.00;99.90;;;;;;5110572;28;20182;-63
2022/10/31 07:43:09;;;;;;;32.80;17.47;;;11.00;99.90;;;;;;5104656;28;20211;-64
2022/10/31 07:45:41;;;;;;;31.37;16.97;;;11.10;99.90;;;;;;5109430;28;20191;-63
2022/10/31 07:48:11;;;;;;;33.10;18.53;;;11.10;99.90;;;;;;5115637;28;20199;-63
2022/10/31 07:50:40;;;;;;;33.80;17.93;;;11.10;99.90;;;;;;5099603;28;20198;-63
2022/10/31 07:53:10;;;;;;;32.47;17.40;;;11.20;99.90;;;;;;5109932;28;20202;-63
2022/10/31 07:55:38;;;;;;;39.03;18.90;;;11.30;99.90;;;;;;5107164;28;20643;-63
2022/10/31 07:58:08;;;;;;;36.13;18.40;;;11.30;99.90;;;;;;5109783;28;20593;-63
2022/10/31 08:00:37;;;;;;;33.67;17.73;;;11.40;99.90;;;;;;5100643;28;20563;-64
2022/10/31 08:03:07;;;;;;;32.60;17.70;;;11.50;99.90;;;;;;5078846;28;20195;-63
2022/10/31 08:05:37;;;;;;;34.53;17.33;;;11.50;99.90;;;;;;5108760;28;20190;-64
2022/10/31 08:08:06;;;;;;;31.43;18.33;;;11.50;99.90;;;;;;5099172;28;20191;-64
2022/10/31 08:10:36;;;;;;;30.90;18.03;;;11.60;99.90;;;;;;5110093;28;20202;-63
2022/10/31 08:13:07;;;;;;;36.80;17.93;;;11.70;99.90;;;;;;5116922;28;20226;-63
2022/10/31 08:15:38;;;;;;;34.50;18.40;;;11.80;99.90;;;;;;5107003;28;20202;-63
2022/10/31 08:18:07;;;;;;;29.80;17.87;;;11.90;99.90;;;;;;5096138;28;20190;-64
2022/10/31 08:20:37;;;;;;;30.47;18.23;;;12.00;99.90;;;;;;5109167;28;20191;-63
2022/10/31 08:23:06;;;;;;;26.00;16.87;;;12.00;99.90;;;;;;5108051;28;20660;-63
2022/10/31 08:25:36;;;;;;;31.90;16.53;;;12.00;99.90;;;;;;5091754;28;20186;-63
2022/10/31 08:28:07;;;;;;;32.47;17.47;;;12.10;99.90;;;;;;5115929;28;20198;-64
2022/10/31 08:30:37;;;;;;;31.47;15.67;;;12.10;99.90;;;;;;5085397;28;20791;-63
2022/10/31 08:33:09;;;;;;;36.00;16.93;;;12.20;99.90;;;;;;5098698;28;20210;-64
2022/10/31 08:35:39;;;;;;;32.07;16.70;;;12.20;99.90;;;;;;5113475;28;20187;-64
2022/10/31 08:38:07;;;;;;;32.83;17.63;;;12.30;99.90;;;;;;5103513;28;20199;-64
2022/10/31 08:40:36;;;;;;;36.00;17.70;;;12.30;99.90;;;;;;5113714;28;20712;-64
2022/10/31 08:43:07;;;;;;;36.47;17.50;;;12.30;99.90;;;;;;5076185;28;20212;-63
2022/10/31 08:45:35;;;;;;;29.27;16.53;;;12.40;99.90;;;;;;5103942;28;20252;-64
2022/10/31 08:48:06;;;;;;;27.77;15.67;;;12.50;99.90;;;;;;5110398;28;20738;-64
2022/10/31 08:50:36;;;;;;;29.97;16.43;;;12.50;99.90;;;;;;5113759;27;20199;-64
2022/10/31 08:53:07;;;;;;;30.03;15.97;;;12.60;99.90;;;;;;5112637;28;20214;-64
2022/10/31 08:55:36;;;;;;;33.47;16.67;;;12.70;99.90;;;;;;5108640;28;20208;-64
2022/10/31 08:58:05;;;;;;;28.13;16.37;;;12.70;99.90;;;;;;5093789;28;20218;-64
2022/10/31 09:00:35;;;;;;;31.77;16.33;;;12.70;99.90;;;;;;5094585;28;20205;-64
2022/10/31 09:03:06;;;;;;;29.03;16.73;;;12.70;99.90;;;;;;5094361;28;20191;-64
2022/10/31 09:05:35;;;;;;;29.47;16.70;;;12.80;99.90;;;;;;5107644;27;20190;-64
2022/10/31 09:08:06;;;;;;;21.83;14.40;;;12.80;99.90;;;;;;5112822;28;20248;-64
2022/10/31 09:10:42;;;;;;;25.63;15.30;;;12.70;99.90;;;;;;5112907;27;21467;-64
2022/10/31 09:13:12;;;;;;;31.73;15.67;;;12.70;99.90;;;;;;5112503;28;20235;-64
2022/10/31 09:15:43;;;;;;;29.73;15.63;;;12.70;99.90;;;;;;5096841;27;20202;-64
2022/10/31 09:18:13;;;;;;;28.73;16.10;;;12.70;99.90;;;;;;5092938;28;20191;-64
2022/10/31 09:20:42;;;;;;;29.50;15.80;;;12.80;99.90;;;;;;5125016;27;20596;-64
2022/10/31 09:23:14;;;;;;;30.83;16.37;;;12.80;99.90;;;;;;5112594;28;20191;-64
2022/10/31 09:25:43;;;;;;;27.53;16.50;;;12.80;99.90;;;;;;5118117;27;20211;-64
2022/10/31 09:28:19;;;;;;;25.70;15.40;;;12.90;99.90;;;;;;5096007;28;20182;-64
2022/10/31 09:30:49;;;;;;;29.47;15.90;;;12.90;99.90;;;;;;5121547;27;20191;-64
2022/10/31 09:33:18;;;;;;;36.97;17.23;;;13.00;99.90;;;;;;5112241;28;20234;-64
2022/10/31 09:35:46;;;;;;;36.70;17.80;;;13.00;99.90;;;;;;5113702;27;20215;-64
2022/10/31 09:38:19;;;;;;;33.00;17.43;;;13.10;99.90;;;;;;5112113;28;20194;-64
2022/10/31 09:40:53;;;;;;;29.27;16.40;;;13.20;99.90;;;;;;5108305;27;20195;-64
2022/10/31 09:43:30;;;;;;;31.93;16.47;;;13.30;99.90;;;;;;5077028;28;20210;-64
2022/10/31 09:46:05;;;;;;;33.20;18.03;;;13.30;99.90;;;;;;5112378;27;20194;-64
2022/10/31 09:48:47;;;;;;;38.83;19.33;;;13.40;99.90;;;;;;5111739;28;20194;-64
2022/10/31 09:51:21;;;;;;;42.03;19.77;;;13.40;99.90;;;;;;5109331;28;20198;-64
2022/10/31 09:53:55;;;;;;;36.43;19.40;;;13.50;99.90;;;;;;5091602;28;20208;-64
2022/10/31 09:56:25;;;;;;;31.13;19.80;;;13.50;99.90;;;;;;5077026;28;20191;-64
2022/10/31 09:58:58;;;;;;;36.57;17.87;;;13.50;99.90;;;;;;5073465;28;20199;-64
2022/10/31 10:01:43;;;;;;;27.10;15.87;;;13.50;99.90;;;;;;5124848;27;20195;-65
2022/10/31 10:04:30;;;;;;;31.30;16.80;;;13.60;99.90;;;;;;5091338;28;20202;-64
2022/10/31 10:07:02;;;;;;;33.53;17.07;;;13.60;99.90;;;;;;5117492;27;20197;-64
2022/10/31 10:09:32;;;;;;;30.70;17.10;;;13.70;99.90;;;;;;5111303;27;20673;-64
2022/10/31 10:12:10;;;;;;;33.17;16.47;;;13.80;99.90;;;;;;5111522;28;20242;-64
2022/10/31 10:14:52;;;;;;;24.23;15.17;;;13.90;99.90;;;;;;5101376;27;20203;-64
2022/10/31 10:17:34;;;;;;;27.87;16.80;;;14.00;99.90;;;;;;5106272;27;20215;-64
2022/10/31 10:20:28;;;;;;;23.53;14.57;;;14.10;99.90;;;;;;5110039;28;20661;-64
2022/10/31 10:23:23;;;;;;;27.13;16.57;;;14.30;99.90;;;;;;5105267;28;20188;-64
2022/10/31 10:25:59;;;;;;;24.40;15.90;;;14.50;99.90;;;;;;5110361;27;20204;-64
2022/10/31 10:28:38;;;;;;;24.37;15.50;;;14.70;99.90;;;;;;5090963;28;20203;-64
2022/10/31 10:31:10;;;;;;;20.53;13.83;;;14.70;99.90;;;;;;5077939;28;20191;-64
2022/10/31 10:33:40;;;;;;;22.47;14.53;;;14.80;99.90;;;;;;5107629;28;20664;-64
2022/10/31 10:36:15;;;;;;;27.90;15.53;;;14.90;99.90;;;;;;5109903;27;20712;-64
2022/10/31 10:38:52;;;;;;;25.27;15.00;;;15.00;99.90;;;;;;5074386;28;20877;-64
2022/10/31 10:41:25;;;;;;;25.63;15.53;;;15.20;99.90;;;;;;5122562;27;20196;-64
2022/10/31 10:44:00;;;;;;;23.30;14.97;;;15.30;99.90;;;;;;5090798;28;20205;-64
2022/10/31 10:49:36;;;;;;;21.63;13.17;;;15.50;99.90;;;;;;5105441;28;20212;-64
2022/10/31 10:52:14;;;;;;;21.53;13.43;;;15.60;99.90;;;;;;5094841;28;20209;-64
2022/10/31 10:55:13;;;;;;;24.03;13.47;;;15.70;99.90;;;;;;5098875;28;20210;-64
2022/10/31 10:57:54;;;;;;;20.07;13.33;;;15.80;99.90;;;;;;5110972;28;20191;-64
2022/10/31 11:00:24;;;;;;;23.00;13.83;;;15.80;99.90;;;;;;5110592;28;20272;-64
2022/10/31 11:03:08;;;;;;;21.10;12.50;;;15.90;99.90;;;;;;5109098;28;20660;-64
2022/10/31 11:05:40;;;;;;;23.13;13.03;;;15.90;99.90;;;;;;5093850;27;20176;-64
2022/10/31 11:08:09;;;;;;;20.87;14.00;;;15.80;99.90;;;;;;5104701;28;20201;-64
2022/10/31 11:10:37;;;;;;;23.97;13.60;;;15.80;99.90;;;;;;5081367;28;20198;-65
2022/10/31 11:13:23;;;;;;;22.90;14.23;;;15.80;99.90;;;;;;5110092;28;20727;-64
2022/10/31 11:16:03;;;;;;;18.70;13.30;;;15.80;99.90;;;;;;5110441;28;20205;-64
2022/10/31 11:18:35;;;;;;;20.90;13.47;;;15.70;99.90;;;;;;5110384;28;20187;-64
2022/10/31 11:21:05;;;;;;;19.67;12.90;;;15.70;99.90;;;;;;5108697;28;20196;-64
2022/10/31 11:23:34;;;;;;;18.60;13.27;;;15.90;99.90;;;;;;5109830;28;20183;-64
2022/10/31 11:26:04;;;;;;;28.93;13.63;;;15.90;99.90;;;;;;5116052;28;20662;-64
2022/10/31 11:28:35;;;;;;;20.80;13.13;;;15.90;99.90;;;;;;5080026;28;20666;-64
2022/10/31 11:31:08;;;;;;;20.30;13.33;;;15.90;99.90;;;;;;5087223;28;20188;-65
2022/10/31 11:33:45;;;;;;;20.87;13.07;;;15.80;99.90;;;;;;5093867;28;20214;-64
2022/10/31 11:36:19;;;;;;;22.77;13.97;;;15.80;99.90;;;;;;5078371;28;20250;-64
2022/10/31 11:38:47;;;;;;;24.23;13.60;;;15.80;99.90;;;;;;5115832;28;20677;-64
2022/10/31 11:41:18;;;;;;;22.97;13.37;;;15.80;99.90;;;;;;5095814;28;20195;-64
2022/10/31 11:43:54;;;;;;;24.50;14.10;;;15.80;99.90;;;;;;5110160;28;20275;-65
2022/10/31 11:46:31;;;;;;;30.30;15.07;;;15.90;99.90;;;;;;5111244;28;20326;-64
2022/10/31 11:49:00;;;;;;;20.67;13.43;;;15.90;99.90;;;;;;5110101;28;20192;-65
2022/10/31 11:51:31;;;;;;;17.80;12.43;;;15.90;99.90;;;;;;5107737;28;20197;-64
2022/10/31 11:54:02;;;;;;;23.13;13.70;;;15.90;99.90;;;;;;5094957;28;20210;-64
2022/10/31 11:56:39;;;;;;;22.53;13.30;;;16.00;99.90;;;;;;5077887;28;20196;-64
2022/10/31 11:59:21;;;;;;;26.33;13.60;;;16.00;99.90;;;;;;5110395;28;20197;-64
2022/10/31 12:01:52;;;;;;;23.40;13.73;;;16.00;99.90;;;;;;5118424;28;20194;-64
2022/10/31 12:04:29;;;;;;;17.13;12.87;;;16.10;99.90;;;;;;5112941;28;20197;-64
2022/10/31 12:06:58;;;;;;;22.40;13.47;;;16.20;99.90;;;;;;5077163;28;20221;-64
2022/10/31 12:09:29;;;;;;;18.37;13.07;;;16.30;99.90;;;;;;5112197;28;20190;-64
2022/10/31 12:12:22;;;;;;;25.60;12.27;;;16.40;99.90;;;;;;5117014;27;20237;-64
2022/10/31 12:15:02;;;;;;;18.73;11.43;;;16.60;99.90;;;;;;5064895;28;20215;-64
2022/10/31 12:17:38;;;;;;;18.77;12.50;;;16.70;99.90;;;;;;5095725;28;20200;-64
2022/10/31 12:20:18;;;;;;;20.33;12.83;;;16.80;99.90;;;;;;5073276;28;20199;-64
2022/10/31 12:22:55;;;;;;;19.23;12.10;;;16.90;99.90;;;;;;5068583;28;20183;-64
2022/10/31 12:25:34;;;;;;;20.20;12.13;;;17.00;99.90;;;;;;5093467;28;20199;-64
2022/10/31 12:28:29;;;;;;;19.77;12.03;;;17.00;99.90;;;;;;5085997;28;20206;-64
2022/10/31 12:31:19;;;;;;;21.90;12.30;;;17.00;99.90;;;;;;5078410;28;20211;-64
2022/10/31 12:33:55;;;;;;;20.83;13.20;;;17.00;99.90;;;;;;5087828;28;20211;-64
2022/10/31 12:36:33;;;;;;;19.87;11.90;;;17.00;99.90;;;;;;5055567;28;20191;-64
2022/10/31 12:39:31;;;;;;;19.57;12.43;;;17.00;99.90;;;;;;5092828;28;20201;-64
2022/10/31 12:42:08;;;;;;;22.23;12.93;;;16.90;99.90;;;;;;5074701;28;20706;-64
2022/10/31 12:45:00;;;;;;;17.60;12.00;;;16.90;99.90;;;;;;5072943;28;20203;-64
2022/10/31 12:47:44;;;;;;;24.10;12.60;;;16.90;99.90;;;;;;5077745;28;20664;-64
2022/10/31 12:50:24;;;;;;;16.33;11.27;;;17.00;99.90;;;;;;5080393;28;20204;-64
2022/10/31 12:53:03;;;;;;;21.03;12.30;;;17.10;99.90;;;;;;5092528;28;20225;-64
2022/10/31 12:55:52;;;;;;;17.40;11.30;;;17.10;99.90;;;;;;5071553;28;20197;-64
2022/10/31 12:58:25;;;;;;;18.77;11.93;;;17.10;99.90;;;;;;5078210;28;20543;-65
2022/10/31 13:01:04;;;;;;;18.53;11.47;;;17.20;99.90;;;;;;5072640;28;20199;-65